Time;durP1;ratioP1;P1;durP2;ratioP2;P2;SDS_P1;SDS_P2;PMS_P1;PMS_P2;Temp;Humidity;BMP_temperature;BMP_pressure;BME280_temperature;BME280_humidity;BME280_pressure;Samples;Min_cycle;Max_cycle;Signal;HPM_P1;HPM_P2
2023/06/30 00:00:17;;;;;;;7.70;6.97;;;;;;;21.46;56.85;96798.41;6188823;22;20493;-79
2023/06/30 00:02:42;;;;;;;6.95;6.25;;;;;;;21.48;56.91;96798.06;6152722;22;20285;-79
2023/06/30 00:05:08;;;;;;;6.70;6.00;;;;;;;21.46;56.33;96797.59;6167350;22;20328;-79
2023/06/30 00:07:34;;;;;;;7.13;6.43;;;;;;;21.42;56.47;96799.34;6154390;22;20372;-79
2023/06/30 00:10:00;;;;;;;6.97;6.38;;;;;;;21.39;56.19;96792.81;6155161;22;20425;-78
2023/06/30 00:12:25;;;;;;;6.78;6.18;;;;;;;21.37;55.83;96797.69;6191244;22;20136;-78
2023/06/30 00:14:50;;;;;;;7.85;7.13;;;;;;;21.34;56.28;96795.66;6133501;22;20259;-80
2023/06/30 00:17:16;;;;;;;7.35;6.65;;;;;;;21.27;56.44;96784.81;6191993;22;20174;-79
2023/06/30 00:19:41;;;;;;;7.93;7.13;;;;;;;21.26;57.04;96786.69;6192947;22;20165;-79
2023/06/30 00:22:07;;;;;;;6.95;6.25;;;;;;;21.25;57.28;96787.00;6130133;22;20208;-79
2023/06/30 00:24:33;;;;;;;7.35;6.70;;;;;;;21.31;56.44;96783.06;6190295;22;20156;-79
2023/06/30 00:26:58;;;;;;;7.22;6.53;;;;;;;21.25;56.71;96790.44;6158135;22;20275;-79
2023/06/30 00:29:24;;;;;;;7.85;7.15;;;;;;;21.18;56.57;96790.19;6190234;22;20319;-79
2023/06/30 00:31:49;;;;;;;7.60;6.72;;;;;;;21.13;57.36;96793.03;6163973;22;20199;-80
2023/06/30 00:34:14;;;;;;;7.93;7.13;;;;;;;21.08;57.23;96787.91;6186681;22;20156;-80
2023/06/30 00:36:40;;;;;;;7.43;6.72;;;;;;;21.03;57.73;96788.88;6156989;22;20604;-79
2023/06/30 00:39:05;;;;;;;7.93;6.70;;;;;;;21.02;58.05;96789.97;6156357;22;20220;-79
2023/06/30 00:41:31;;;;;;;7.82;7.00;;;;;;;21.04;57.62;96795.72;6152655;22;20256;-79
2023/06/30 00:43:58;;;;;;;7.90;7.22;;;;;;;21.02;57.50;96797.13;6185779;22;20255;-81
2023/06/30 00:46:23;;;;;;;8.88;7.35;;;;;;;20.95;58.12;96792.34;6126577;22;20312;-79
2023/06/30 00:48:49;;;;;;;8.02;7.25;;;;;;;21.02;57.54;96803.19;6126192;22;20065;-79
2023/06/30 00:51:15;;;;;;;7.55;6.85;;;;;;;21.13;57.95;96793.78;6150916;22;20068;-79
2023/06/30 00:53:40;;;;;;;8.40;7.47;;;;;;;21.12;57.97;96796.75;6150262;22;20421;-79
2023/06/30 00:56:06;;;;;;;8.02;7.28;;;;;;;21.04;58.27;96793.09;6150883;22;20076;-80
2023/06/30 00:58:32;;;;;;;8.20;7.40;;;;;;;21.04;58.14;96795.72;6149364;22;20139;-80
2023/06/30 01:01:17;;;;;;;8.52;7.72;;;;;;;21.12;57.71;96786.16;6160190;22;20511;-80
2023/06/30 01:03:44;;;;;;;;;;;;;;;21.19;57.89;96790.94;6179659;22;20198;-80
2023/06/30 01:06:16;;;;;;;7.60;6.88;;;;;;;21.03;58.77;96782.81;6175509;22;20202;-80
2023/06/30 01:08:49;;;;;;;8.00;7.30;;;;;;;21.06;58.43;96775.00;6176156;22;20135;-80
2023/06/30 01:11:15;;;;;;;9.45;7.93;;;;;;;20.95;59.00;96777.22;6187472;22;20292;-80
2023/06/30 01:13:41;;;;;;;8.23;7.43;;;;;;;21.01;58.88;96769.91;6124686;22;20205;-80
2023/06/30 01:16:09;;;;;;;8.27;7.47;;;;;;;21.03;58.78;96762.41;6125771;22;20283;-80
2023/06/30 01:18:36;;;;;;;7.82;7.05;;;;;;;21.10;58.83;96770.59;6151208;22;20395;-79
2023/06/30 01:21:04;;;;;;;7.45;6.70;;;;;;;21.16;58.12;96770.41;6160545;22;20216;-80
2023/06/30 01:23:39;;;;;;;7.53;6.82;;;;;;;21.12;58.65;96760.47;6124352;22;20286;-81
2023/06/30 01:26:06;;;;;;;8.00;7.20;;;;;;;21.09;58.50;96766.41;6150935;22;20231;-80
2023/06/30 01:28:34;;;;;;;8.20;7.50;;;;;;;21.11;58.21;96772.16;6184445;22;20458;-80
2023/06/30 01:31:00;;;;;;;9.02;8.00;;;;;;;21.01;59.70;96754.03;6125715;22;20194;-80
2023/06/30 01:33:28;;;;;;;9.30;8.00;;;;;;;21.14;59.38;96768.09;6149796;22;20349;-80
2023/06/30 01:35:53;;;;;;;8.80;8.00;;;;;;;21.22;58.57;96775.19;6124976;22;20170;-80
2023/06/30 01:38:19;;;;;;;8.25;7.45;;;;;;;21.25;58.67;96763.16;6150124;22;20326;-80
2023/06/30 01:40:45;;;;;;;7.90;7.20;;;;;;;21.24;59.15;96757.09;6185380;22;20198;-80
2023/06/30 01:43:12;;;;;;;8.63;7.82;;;;;;;21.29;58.34;96764.09;6185924;22;20165;-80
2023/06/30 01:45:38;;;;;;;8.52;7.70;;;;;;;21.33;59.10;96759.69;6185395;22;20177;-80
2023/06/30 01:48:03;;;;;;;8.02;7.32;;;;;;;21.41;59.05;96768.66;6213720;22;20284;-79
2023/06/30 01:50:31;;;;;;;7.68;6.93;;;;;;;21.36;58.94;96756.38;6184600;22;20147;-80
2023/06/30 01:52:58;;;;;;;9.23;8.20;;;;;;;21.40;59.06;96756.50;6161288;22;20201;-80
2023/06/30 01:55:23;;;;;;;8.25;7.45;;;;;;;21.40;58.99;96759.16;6149970;22;20121;-80
2023/06/30 01:57:48;;;;;;;8.63;7.82;;;;;;;21.39;58.99;96757.63;6125182;22;20281;-80
2023/06/30 02:00:14;;;;;;;8.35;7.55;;;;;;;21.34;58.90;96755.94;6184318;22;20080;-79
2023/06/30 02:02:40;;;;;;;8.13;7.43;;;;;;;21.36;58.60;96763.56;6125452;22;20391;-80
2023/06/30 02:05:06;;;;;;;8.38;7.63;;;;;;;21.32;58.64;96752.84;6149036;22;20252;-80
2023/06/30 02:07:31;;;;;;;8.60;7.70;;;;;;;21.39;58.45;96760.28;6149484;22;20162;-80
2023/06/30 02:09:57;;;;;;;8.32;7.53;;;;;;;21.38;58.44;96754.19;6124467;22;20100;-80
2023/06/30 02:12:22;;;;;;;8.27;7.47;;;;;;;21.41;58.74;96758.84;6160689;22;20139;-80
2023/06/30 02:14:48;;;;;;;7.72;7.03;;;;;;;21.43;58.40;96766.47;6174888;22;20248;-80
2023/06/30 02:17:13;;;;;;;9.32;8.18;;;;;;;21.43;58.68;96769.09;6160856;22;20189;-80
2023/06/30 02:19:39;;;;;;;8.57;7.68;;;;;;;21.56;57.96;96780.53;6159844;22;20185;-80
2023/06/30 02:22:04;;;;;;;8.07;7.28;;;;;;;21.63;57.02;96783.47;6160413;22;20326;-80
2023/06/30 02:24:30;;;;;;;8.15;7.35;;;;;;;21.68;57.00;96802.56;6160060;22;20216;-80
2023/06/30 02:26:55;;;;;;;10.18;7.60;;;;;;;21.55;57.59;96800.97;6136534;22;20142;-81
2023/06/30 02:29:21;;;;;;;8.70;7.53;;;;;;;21.42;58.28;96796.69;6153615;22;20083;-80
2023/06/30 02:31:46;;;;;;;9.43;8.35;;;;;;;21.22;60.46;96782.38;6214987;22;20269;-84
2023/06/30 02:34:12;;;;;;;8.90;8.07;;;;;;;21.09;60.48;96762.97;6202339;22;20103;-84
2023/06/30 02:36:37;;;;;;;9.38;7.93;;;;;;;21.00;61.98;96747.16;6231967;22;20076;-84
2023/06/30 02:39:04;;;;;;;9.48;8.68;;;;;;;21.10;62.74;96767.94;6245684;22;20010;-83
2023/06/30 02:41:29;;;;;;;10.55;9.52;;;;;;;20.97;62.84;96765.56;6215598;22;20065;-83
2023/06/30 02:43:54;;;;;;;10.07;8.95;;;;;;;20.75;64.22;96747.03;6190895;22;20123;-82
2023/06/30 02:46:20;;;;;;;11.65;9.57;;;;;;;20.86;64.18;96768.59;6188623;22;20011;-84
2023/06/30 02:48:45;;;;;;;10.05;9.05;;;;;;;20.83;65.11;96763.16;6250880;22;20345;-83
2023/06/30 02:51:11;;;;;;;10.00;9.00;;;;;;;20.65;64.65;96744.75;6250740;22;20453;-82
2023/06/30 02:53:36;;;;;;;10.35;9.27;;;;;;;20.71;65.24;96761.22;6211531;22;20003;-83
2023/06/30 02:56:01;;;;;;;10.55;9.55;;;;;;;20.73;64.99;96772.25;6229404;22;20383;-83
2023/06/30 02:58:27;;;;;;;10.82;9.82;;;;;;;20.56;64.94;96757.19;6200774;22;20041;-82
2023/06/30 03:00:55;;;;;;;9.65;8.68;;;;;;;20.68;65.00;96770.56;6231372;22;20156;-82
2023/06/30 03:03:20;;;;;;;10.18;9.18;;;;;;;20.67;64.76;96765.59;6198200;22;20090;-81
2023/06/30 03:05:45;;;;;;;11.25;9.18;;;;;;;20.71;64.99;96777.06;6236539;22;20657;-80
2023/06/30 03:08:11;;;;;;;10.90;9.80;;;;;;;20.59;65.04;96764.50;6224680;22;20007;-80
2023/06/30 03:10:36;;;;;;;11.13;10.10;;;;;;;20.59;65.08;96775.09;6233474;22;20429;-80
2023/06/30 03:13:02;;;;;;;12.00;10.73;;;;;;;20.56;65.45;96768.56;6233299;22;20107;-81
2023/06/30 03:15:27;;;;;;;11.85;10.68;;;;;;;20.48;65.52;96764.09;6223423;22;20096;-82
2023/06/30 03:17:55;;;;;;;11.02;9.93;;;;;;;20.47;65.82;96759.13;6202279;22;20166;-82
2023/06/30 03:20:20;;;;;;;11.35;9.55;;;;;;;20.53;65.92;96765.78;6196884;22;20379;-80
2023/06/30 03:22:46;;;;;;;10.82;9.73;;;;;;;20.53;65.88;96777.16;6219084;22;20545;-83
2023/06/30 03:25:11;;;;;;;10.98;9.88;;;;;;;20.49;66.01;96770.91;6222842;22;20010;-80
2023/06/30 03:27:37;;;;;;;11.65;10.07;;;;;;;20.37;65.78;96762.91;6225724;22;20167;-82
2023/06/30 03:30:04;;;;;;;10.85;9.65;;;;;;;20.25;66.03;96739.78;6192134;22;20158;-82
2023/06/30 03:32:30;;;;;;;10.45;9.55;;;;;;;20.34;66.21;96756.38;6217168;22;20077;-80
2023/06/30 03:34:55;;;;;;;10.82;9.82;;;;;;;20.25;66.26;96744.28;6215185;22;20087;-81
2023/06/30 03:37:21;;;;;;;10.68;9.15;;;;;;;20.32;65.94;96763.06;6213332;22;20147;-82
2023/06/30 03:39:46;;;;;;;11.18;10.00;;;;;;;20.18;66.04;96739.50;6192178;22;20003;-81
2023/06/30 03:42:12;;;;;;;11.35;10.23;;;;;;;20.17;65.79;96737.97;6218237;22;20156;-82
2023/06/30 03:44:37;;;;;;;11.27;10.18;;;;;;;20.15;66.28;96726.91;6253692;22;20191;-80
2023/06/30 03:47:03;;;;;;;11.10;10.00;;;;;;;20.13;66.90;96721.16;6217688;22;20007;-81
2023/06/30 03:49:29;;;;;;;11.77;10.68;;;;;;;20.18;67.22;96739.50;6195783;22;20267;-80
2023/06/30 03:51:54;;;;;;;11.95;10.75;;;;;;;20.23;66.84;96739.31;6230954;22;20079;-82
2023/06/30 03:54:19;;;;;;;11.70;10.50;;;;;;;20.07;66.65;96709.25;6195392;22;20235;-81
2023/06/30 03:56:46;;;;;;;11.57;10.48;;;;;;;20.11;66.74;96724.13;6194123;22;20003;-81
2023/06/30 03:59:12;;;;;;;11.73;10.52;;;;;;;20.21;66.57;96733.56;6217420;22;20211;-82
2023/06/30 04:01:39;;;;;;;10.23;9.23;;;;;;;20.21;66.57;96725.66;6192898;22;20452;-81
2023/06/30 04:04:06;;;;;;;13.00;10.63;;;;;;;20.28;66.42;96748.94;6218292;22;20030;-82
2023/06/30 04:06:33;;;;;;;11.85;10.65;;;;;;;20.23;66.27;96752.53;6254164;22;20011;-81
2023/06/30 04:08:59;;;;;;;11.98;10.18;;;;;;;20.07;66.57;96735.66;6253638;22;20019;-82
2023/06/30 04:11:25;;;;;;;10.90;9.80;;;;;;;20.17;66.43;96754.59;6217536;22;20047;-80
2023/06/30 04:13:50;;;;;;;11.45;10.32;;;;;;;20.10;66.39;96742.94;6190714;22;20159;-82
2023/06/30 04:16:17;;;;;;;11.23;9.95;;;;;;;20.21;66.58;96755.50;6223971;22;20059;-80
2023/06/30 04:18:43;;;;;;;11.65;10.60;;;;;;;20.25;67.00;96760.91;6191009;22;20401;-81
2023/06/30 04:21:09;;;;;;;11.38;10.27;;;;;;;20.22;66.57;96772.16;6216325;22;20166;-81
2023/06/30 04:23:35;;;;;;;12.57;11.30;;;;;;;20.21;67.18;96760.00;6219277;22;20379;-80
2023/06/30 04:26:00;;;;;;;11.55;10.38;;;;;;;20.26;66.71;96767.00;6230644;22;20255;-82
2023/06/30 04:28:26;;;;;;;11.13;10.00;;;;;;;20.30;66.25;96770.56;6221349;22;20487;-82
2023/06/30 04:30:52;;;;;;;12.23;10.85;;;;;;;20.28;66.81;96756.88;6198502;22;20011;-81
2023/06/30 04:33:17;;;;;;;11.80;10.60;;;;;;;20.36;66.80;96759.47;6232384;22;19999;-82
2023/06/30 04:35:43;;;;;;;11.63;10.48;;;;;;;20.46;66.81;96771.59;6196775;22;20010;-81
2023/06/30 04:38:09;;;;;;;12.70;11.40;;;;;;;20.53;66.99;96763.16;6233519;22;20285;-83
2023/06/30 04:40:35;;;;;;;11.75;10.57;;;;;;;20.47;67.07;96753.84;6246473;22;20003;-80
2023/06/30 04:43:00;;;;;;;12.23;10.93;;;;;;;20.49;67.34;96743.72;6198299;22;20190;-82
2023/06/30 04:45:26;;;;;;;13.18;11.77;;;;;;;20.65;67.24;96763.28;6205110;22;20172;-81
2023/06/30 04:47:51;;;;;;;13.13;11.82;;;;;;;20.66;67.52;96750.81;6230890;22;20270;-82
2023/06/30 04:50:17;;;;;;;12.93;11.52;;;;;;;20.70;67.70;96747.22;6204474;22;20019;-82
2023/06/30 04:52:43;;;;;;;12.13;10.90;;;;;;;20.89;67.22;96767.19;6207195;22;20466;-83
2023/06/30 04:55:09;;;;;;;14.77;11.68;;;;;;;20.81;67.26;96754.78;6266373;22;20129;-83
2023/06/30 04:57:34;;;;;;;12.35;11.07;;;;;;;20.94;66.79;96767.00;6206041;22;20015;-83
2023/06/30 05:00:00;;;;;;;13.18;11.73;;;;;;;20.89;66.67;96751.31;6204738;22;20011;-81
2023/06/30 05:02:26;;;;;;;12.07;10.70;;;;;;;21.03;66.72;96775.66;6253942;22;20151;-83
2023/06/30 05:04:51;;;;;;;13.73;11.82;;;;;;;21.06;66.57;96777.66;6227497;22;20163;-82
2023/06/30 05:07:16;;;;;;;16.45;13.35;;;;;;;21.09;66.73;96770.91;6235645;22;20080;-82
2023/06/30 05:09:42;;;;;;;14.77;11.90;;;;;;;21.22;66.54;96777.06;6221798;22;20335;-80
2023/06/30 05:12:08;;;;;;;16.88;13.02;;;;;;;21.22;66.12;96779.72;6188147;22;20139;-82
2023/06/30 05:14:33;;;;;;;14.88;13.27;;;;;;;21.29;66.51;96786.03;6228823;22;20230;-81
2023/06/30 05:16:58;;;;;;;16.25;14.02;;;;;;;21.30;66.17;96770.91;6212850;22;20325;-82
2023/06/30 05:19:24;;;;;;;19.83;13.75;;;;;;;21.31;66.30;96770.59;6187238;22;20134;-83
2023/06/30 05:21:50;;;;;;;20.00;14.32;;;;;;;21.40;66.39;96777.69;6203146;22;20053;-82
2023/06/30 05:24:16;;;;;;;16.90;13.95;;;;;;;21.43;66.37;96780.47;6184062;22;20319;-82
2023/06/30 05:26:42;;;;;;;17.02;14.88;;;;;;;21.42;66.40;96781.59;6211781;22;20064;-81
2023/06/30 05:29:09;;;;;;;18.92;14.73;;;;;;;21.51;66.01;96787.59;6175525;22;20227;-80
2023/06/30 05:31:35;;;;;;;19.55;14.45;;;;;;;21.50;66.09;96774.69;6201073;22;20143;-80
2023/06/30 05:34:01;;;;;;;19.10;14.57;;;;;;;21.59;66.46;96788.66;6198027;22;20087;-80
2023/06/30 05:36:27;;;;;;;19.75;16.05;;;;;;;21.72;66.39;96793.97;6176215;22;20155;-80
2023/06/30 05:38:53;;;;;;;19.83;15.35;;;;;;;21.69;66.63;96785.59;6132593;22;20160;-80
2023/06/30 05:41:18;;;;;;;20.05;15.73;;;;;;;21.75;66.37;96786.16;6130320;22;20242;-82
2023/06/30 05:43:44;;;;;;;21.25;16.50;;;;;;;21.73;66.03;96783.06;6150988;22;20370;-82
2023/06/30 05:46:09;;;;;;;22.10;16.15;;;;;;;21.74;65.90;96768.69;6152405;22;20531;-81
2023/06/30 05:48:35;;;;;;;22.98;17.60;;;;;;;21.75;65.66;96780.09;6127723;22;20216;-82
2023/06/30 05:51:00;;;;;;;23.75;17.27;;;;;;;21.76;66.10;96779.72;6162424;22;20502;-82
2023/06/30 05:53:25;;;;;;;21.17;15.82;;;;;;;21.83;66.11;96797.75;6136993;22;20147;-82
2023/06/30 05:55:51;;;;;;;26.20;19.23;;;;;;;21.69;66.64;96779.50;6129799;22;20588;-81
2023/06/30 05:58:16;;;;;;;24.50;17.77;;;;;;;21.85;66.42;96784.97;6163426;22;20329;-81
2023/06/30 06:00:41;;;;;;;26.55;19.08;;;;;;;21.80;66.69;96785.19;6127808;22;20264;-80
2023/06/30 06:03:07;;;;;;;25.30;18.15;;;;;;;21.82;66.06;96786.38;6152432;22;20300;-81
2023/06/30 06:05:32;;;;;;;27.40;19.02;;;;;;;21.93;65.85;96785.97;6162547;22;20598;-81
2023/06/30 06:07:58;;;;;;;28.80;19.80;;;;;;;21.99;65.65;96789.97;6126575;22;20178;-82
2023/06/30 06:10:23;;;;;;;27.30;19.50;;;;;;;21.93;65.44;96791.28;6152201;22;20361;-81
2023/06/30 06:12:52;;;;;;;28.25;18.70;;;;;;;22.05;66.08;96800.06;6127744;22;20460;-82
2023/06/30 06:15:17;;;;;;;29.80;21.40;;;;;;;22.05;65.03;96797.41;6150835;22;20053;-81
2023/06/30 06:17:43;;;;;;;33.92;22.52;;;;;;;21.92;66.20;96800.31;6153380;22;20182;-81
2023/06/30 06:20:09;;;;;;;31.63;21.33;;;;;;;22.00;66.29;96804.75;6188487;22;20189;-81
2023/06/30 06:22:34;;;;;;;31.33;21.48;;;;;;;22.03;65.62;96796.94;6132732;22;20106;-82
2023/06/30 06:24:59;;;;;;;31.52;20.90;;;;;;;22.20;65.36;96808.47;6132267;22;20709;-81
2023/06/30 06:27:25;;;;;;;33.80;22.15;;;;;;;22.07;65.45;96805.78;6167251;22;20004;-81
2023/06/30 06:29:51;;;;;;;34.15;22.10;;;;;;;22.21;65.62;96808.13;6189171;22;20206;-81
2023/06/30 06:32:18;;;;;;;33.08;22.08;;;;;;;22.29;66.21;96819.00;6126492;22;20268;-80
2023/06/30 06:34:44;;;;;;;32.15;20.92;;;;;;;22.36;65.15;96819.22;6188580;22;20104;-81
2023/06/30 06:37:10;;;;;;;35.42;23.88;;;;;;;22.47;64.77;96822.25;6152277;22;20166;-81
2023/06/30 06:39:35;;;;;;;37.65;24.10;;;;;;;22.58;64.91;96831.31;6127564;22;20259;-82
2023/06/30 06:42:01;;;;;;;36.67;23.52;;;;;;;22.37;64.76;96823.44;6152225;22;20342;-80
2023/06/30 06:44:26;;;;;;;35.75;23.83;;;;;;;22.50;64.26;96832.97;6153759;22;20231;-82
2023/06/30 06:47:30;;;;;;;36.10;22.42;;;;;;;22.67;63.84;96841.81;6128274;22;20162;-82
2023/06/30 06:49:56;;;;;;;35.50;23.27;;;;;;;22.55;64.52;96843.38;6177586;22;20259;-81
2023/06/30 06:52:21;;;;;;;42.25;25.80;;;;;;;22.21;64.67;96834.66;6134090;22;20162;-80
2023/06/30 06:54:46;;;;;;;39.30;25.65;;;;;;;22.22;64.68;96835.44;6193134;22;20365;-81
2023/06/30 06:57:12;;;;;;;37.55;24.13;;;;;;;22.36;65.01;96848.41;6129938;22;20130;-80
2023/06/30 06:59:37;;;;;;;35.05;23.40;;;;;;;22.38;65.46;96854.94;6152834;22;20325;-81
2023/06/30 07:02:03;;;;;;;36.30;21.73;;;;;;;22.51;64.97;96842.47;6176722;22;20165;-81
2023/06/30 07:04:28;;;;;;;36.67;24.40;;;;;;;22.48;65.03;96832.50;6182229;22;20224;-81
2023/06/30 07:06:54;;;;;;;34.65;22.23;;;;;;;22.56;65.23;96844.91;6153144;22;20311;-80
2023/06/30 07:09:19;;;;;;;40.08;24.38;;;;;;;22.55;64.92;96835.41;6152948;22;20419;-81
2023/06/30 07:11:45;;;;;;;38.42;25.35;;;;;;;22.73;65.28;96848.47;6188110;22;20241;-81
2023/06/30 07:14:10;;;;;;;38.03;24.77;;;;;;;22.68;63.81;96853.97;6126655;22;20224;-82
2023/06/30 07:16:36;;;;;;;38.83;24.65;;;;;;;22.46;64.92;96853.28;6153995;22;20153;-81
2023/06/30 07:19:03;;;;;;;36.95;23.70;;;;;;;22.56;64.22;96852.84;6154213;22;20358;-81
2023/06/30 07:21:28;;;;;;;42.35;26.35;;;;;;;22.60;64.35;96851.13;6152039;22;20076;-81
2023/06/30 07:23:55;;;;;;;37.17;23.48;;;;;;;22.63;64.94;96855.72;6165085;22;20208;-82
2023/06/30 07:26:21;;;;;;;40.75;25.15;;;;;;;22.49;64.24;96854.53;6130902;22;20350;-81
2023/06/30 07:28:48;;;;;;;35.83;23.10;;;;;;;22.56;64.33;96852.84;6130614;22;20441;-80
2023/06/30 07:31:13;;;;;;;38.55;24.13;;;;;;;22.59;64.28;96857.50;6131181;22;20447;-80
2023/06/30 07:33:39;;;;;;;37.03;23.55;;;;;;;22.58;64.57;96858.59;6198662;22;20211;-80
2023/06/30 07:36:05;;;;;;;39.33;24.55;;;;;;;22.61;63.73;96857.94;6129405;22;20260;-81
2023/06/30 07:38:30;;;;;;;39.28;24.08;;;;;;;22.49;63.70;96859.81;6130417;22;20452;-81
2023/06/30 07:40:56;;;;;;;28.65;19.42;;;;;;;22.47;63.59;96862.03;6155877;22;20170;-80
2023/06/30 07:43:21;;;;;;;29.85;18.42;;;;;;;22.40;63.94;96852.72;6127087;22;20154;-81
2023/06/30 07:45:47;;;;;;;28.15;18.20;;;;;;;22.49;63.44;96865.91;6152227;22;20310;-79
2023/06/30 07:48:12;;;;;;;26.98;16.55;;;;;;;22.40;63.88;96859.94;6128018;22;20069;-81
2023/06/30 07:50:37;;;;;;;27.33;17.83;;;;;;;22.35;64.08;96870.75;6130154;22;20242;-80
2023/06/30 07:53:08;;;;;;;26.63;16.60;;;;;;;22.38;63.82;96873.50;6129084;22;20284;-79
2023/06/30 07:55:33;;;;;;;25.50;14.70;;;;;;;22.33;63.89;96884.34;6129419;22;20222;-80
2023/06/30 07:57:59;;;;;;;21.48;14.05;;;;;;;22.34;63.34;96869.19;6152880;22;20298;-81
2023/06/30 08:00:28;;;;;;;23.02;14.40;;;;;;;22.36;62.94;96872.28;6128564;22;20201;-80
2023/06/30 08:02:54;;;;;;;19.20;13.38;;;;;;;22.48;62.29;96880.25;6153630;22;20326;-80
2023/06/30 08:05:20;;;;;;;19.38;12.15;;;;;;;22.30;62.67;96873.59;6162731;22;20355;-81
2023/06/30 08:07:46;;;;;;;19.48;13.00;;;;;;;22.28;62.92;96875.78;6164460;22;20173;-81
2023/06/30 08:10:12;;;;;;;20.77;13.98;;;;;;;22.22;63.74;96875.97;6128790;22;20338;-81
2023/06/30 08:12:37;;;;;;;18.83;12.20;;;;;;;22.37;62.62;96879.16;6162525;22;20181;-80
2023/06/30 08:15:04;;;;;;;18.42;11.77;;;;;;;22.38;62.49;96880.69;6128310;22;20214;-80
2023/06/30 08:17:29;;;;;;;18.38;12.10;;;;;;;22.40;62.80;96883.81;6152954;22;20062;-80
2023/06/30 08:19:54;;;;;;;19.30;12.00;;;;;;;22.51;62.31;96879.59;6127151;22;20259;-80
2023/06/30 08:22:21;;;;;;;19.52;11.18;;;;;;;22.66;62.45;96880.09;6217343;22;20197;-82
2023/06/30 08:24:47;;;;;;;16.88;10.98;;;;;;;22.63;62.70;96886.81;6189340;22;20247;-81
2023/06/30 08:27:13;;;;;;;17.08;11.60;;;;;;;22.69;61.90;96882.84;6154511;22;20249;-81
2023/06/30 08:29:39;;;;;;;16.55;10.80;;;;;;;22.72;61.30;96894.66;6154775;22;20174;-79
2023/06/30 08:32:04;;;;;;;14.00;9.95;;;;;;;22.66;60.84;96898.66;6128970;22;20193;-81
2023/06/30 08:34:30;;;;;;;13.13;9.57;;;;;;;22.39;61.56;96892.84;6155732;22;20255;-80
2023/06/30 08:36:55;;;;;;;13.77;9.73;;;;;;;22.34;61.96;96893.81;6165874;22;20143;-79
2023/06/30 08:39:22;;;;;;;11.80;9.35;;;;;;;22.39;61.36;96892.84;6129202;22;20510;-78
2023/06/30 08:41:49;;;;;;;12.07;8.93;;;;;;;22.37;61.40;96890.53;6166096;22;20241;-79
2023/06/30 08:44:15;;;;;;;12.77;8.50;;;;;;;22.41;61.13;96890.63;6154871;22;20226;-78
2023/06/30 08:46:41;;;;;;;11.60;9.10;;;;;;;22.31;61.33;96897.16;6154589;22;20261;-79
2023/06/30 08:49:07;;;;;;;11.52;9.25;;;;;;;22.20;61.65;96890.66;6190486;22;20293;-78
2023/06/30 08:51:33;;;;;;;11.27;9.18;;;;;;;22.31;61.14;96888.41;6153678;22;20246;-78
2023/06/30 08:53:58;;;;;;;13.18;9.20;;;;;;;22.10;61.76;96886.53;6160408;22;20257;-79
2023/06/30 08:56:25;;;;;;;12.63;9.15;;;;;;;22.27;61.65;96890.91;6152247;22;20194;-79
2023/06/30 08:58:51;;;;;;;12.23;8.73;;;;;;;22.37;61.02;96885.22;6126856;22;20311;-79
2023/06/30 09:01:17;;;;;;;12.23;8.73;;;;;;;22.69;59.55;96879.41;6152126;22;20373;-79
2023/06/30 09:03:42;;;;;;;12.10;8.75;;;;;;;22.71;59.26;96871.91;6162930;22;20287;-78
2023/06/30 09:06:09;;;;;;;11.40;9.00;;;;;;;22.87;59.59;96896.66;6217045;22;20221;-78
2023/06/30 09:08:48;;;;;;;11.55;8.07;;;;;;;22.98;57.75;96886.41;6157707;22;20251;-81
2023/06/30 09:11:15;;;;;;;11.98;9.95;;;;;;;22.76;58.65;96895.56;6132338;22;20479;-79
2023/06/30 09:13:41;;;;;;;10.57;8.40;;;;;;;22.69;57.77;96882.06;6159096;22;20233;-79
2023/06/30 09:16:10;;;;;;;10.25;9.10;;;;;;;22.53;58.73;96897.84;6133278;22;20196;-80
2023/06/30 09:18:39;;;;;;;9.38;8.30;;;;;;;22.61;58.11;96900.41;6156707;22;20165;-79
2023/06/30 09:21:06;;;;;;;9.77;8.57;;;;;;;22.53;57.82;96901.28;6134048;22;20249;-80
2023/06/30 09:23:32;;;;;;;9.88;8.35;;;;;;;22.31;58.65;96906.97;6159437;22;20168;-78
2023/06/30 09:25:57;;;;;;;9.77;8.77;;;;;;;22.03;59.12;96891.59;6173354;22;20290;-81
2023/06/30 09:28:24;;;;;;;9.52;8.52;;;;;;;22.22;58.85;96899.84;6166402;22;20166;-79
2023/06/30 09:30:49;;;;;;;9.32;7.88;;;;;;;22.17;58.71;96902.69;6155497;22;20403;-80
2023/06/30 09:33:16;;;;;;;9.30;8.35;;;;;;;22.34;58.56;96901.00;6165866;22;20227;-80
2023/06/30 09:35:47;;;;;;;9.25;8.35;;;;;;;22.20;58.57;96902.03;6133469;22;20329;-79
2023/06/30 09:38:16;;;;;;;9.20;7.93;;;;;;;22.45;58.65;96896.84;6164875;22;20368;-79
2023/06/30 09:40:46;;;;;;;10.32;8.63;;;;;;;22.57;59.23;96899.53;6190168;22;20348;-79
2023/06/30 09:43:17;;;;;;;10.27;9.18;;;;;;;22.35;58.34;96895.38;6162055;22;20169;-77
2023/06/30 09:45:44;;;;;;;9.80;8.43;;;;;;;22.06;58.44;96883.00;6162116;22;20420;-80
2023/06/30 09:48:13;;;;;;;9.55;8.02;;;;;;;22.08;59.28;96886.09;6141286;22;20223;-79
2023/06/30 09:50:38;;;;;;;9.02;8.18;;;;;;;21.93;58.82;96886.69;6132863;22;20603;-80
2023/06/30 09:53:04;;;;;;;8.75;7.82;;;;;;;21.99;58.53;96885.41;6196595;22;20293;-79
2023/06/30 09:55:29;;;;;;;7.38;6.43;;;;;;;22.17;57.96;96878.81;6171848;22;20185;-80
2023/06/30 09:57:58;;;;;;;8.70;6.88;;;;;;;22.35;58.29;96887.44;6174648;22;20412;-80
2023/06/30 10:00:25;;;;;;;7.43;6.05;;;;;;;22.53;55.78;96895.97;6136752;22;20249;-80
2023/06/30 10:03:04;;;;;;;7.38;6.50;;;;;;;22.55;55.69;96891.13;6172498;22;20272;-79
2023/06/30 10:05:30;;;;;;;6.00;5.40;;;;;;;22.56;56.41;96883.94;6194317;22;20219;-80
2023/06/30 10:07:57;;;;;;;5.68;4.85;;;;;;;22.89;54.55;96899.00;6130495;22;20424;-80
2023/06/30 10:10:23;;;;;;;5.90;5.30;;;;;;;23.02;53.06;96897.91;6156213;22;20553;-82
2023/06/30 10:12:50;;;;;;;5.60;5.10;;;;;;;23.19;53.42;96907.56;6127069;22;20305;-79
2023/06/30 10:15:16;;;;;;;6.57;5.50;;;;;;;23.31;52.35;96917.41;6129802;22;20289;-81
2023/06/30 10:17:43;;;;;;;6.10;5.50;;;;;;;23.18;51.44;96917.41;6156958;22;20239;-78
2023/06/30 10:20:09;;;;;;;6.28;5.47;;;;;;;23.12;51.39;96928.59;6131903;22;20158;-78
2023/06/30 10:22:35;;;;;;;6.18;5.47;;;;;;;22.80;52.77;96928.31;6169943;22;20169;-81
2023/06/30 10:25:01;;;;;;;6.53;5.38;;;;;;;22.86;52.43;96929.66;6197758;22;20076;-79
2023/06/30 10:27:27;;;;;;;6.00;5.40;;;;;;;22.84;52.32;96913.25;6197934;22;20182;-82
2023/06/30 10:29:54;;;;;;;6.60;6.00;;;;;;;23.05;52.99;96917.69;6132578;22;20339;-80
2023/06/30 10:32:20;;;;;;;7.15;5.95;;;;;;;23.24;52.27;96915.31;6134562;22;20202;-81
2023/06/30 10:34:47;;;;;;;6.05;5.45;;;;;;;23.26;52.02;96922.94;6184920;22;20162;-80
2023/06/30 10:37:13;;;;;;;7.28;6.57;;;;;;;23.15;51.29;96919.94;6166991;22;20251;-81
2023/06/30 10:39:39;;;;;;;7.95;6.45;;;;;;;23.15;52.04;96925.25;6201842;22;19995;-81
2023/06/30 10:42:04;;;;;;;7.65;6.85;;;;;;;23.13;51.74;96919.50;6131490;22;20219;-79
2023/06/30 10:44:37;;;;;;;7.53;6.72;;;;;;;23.30;52.11;96907.88;6196177;22;20185;-79
2023/06/30 10:47:03;;;;;;;7.20;6.50;;;;;;;23.52;51.25;96920.69;6156820;22;20338;-81
2023/06/30 10:49:29;;;;;;;7.63;6.78;;;;;;;23.60;50.84;96905.72;6189120;22;20227;-79
2023/06/30 10:51:57;;;;;;;6.93;6.22;;;;;;;23.92;49.98;96900.56;6156248;22;20182;-80
2023/06/30 10:54:41;;;;;;;8.15;6.85;;;;;;;24.30;48.93;96905.38;6155260;22;20172;-82
2023/06/30 10:57:13;;;;;;;9.18;7.03;;;;;;;23.58;50.16;96913.28;6152542;22;20237;-81
2023/06/30 10:59:43;;;;;;;8.25;6.65;;;;;;;24.00;49.18;96902.28;6168774;22;20400;-81
2023/06/30 11:02:22;;;;;;;7.82;7.03;;;;;;;24.01;49.42;96913.69;6128194;22;20557;-80
2023/06/30 11:04:50;;;;;;;8.68;7.78;;;;;;;23.70;50.13;96915.88;6150343;22;20299;-80
2023/06/30 11:07:22;;;;;;;8.10;7.30;;;;;;;23.61;50.41;96925.88;6172757;22;20185;-82
2023/06/30 11:09:50;;;;;;;7.47;6.78;;;;;;;23.69;49.80;96918.88;6181666;22;20240;-79
2023/06/30 11:12:18;;;;;;;9.20;7.78;;;;;;;23.88;50.30;96905.00;6158964;22;20193;-79
2023/06/30 11:15:03;;;;;;;8.57;7.72;;;;;;;24.41;49.02;96892.34;6192869;22;20066;-80
2023/06/30 11:17:48;;;;;;;;;;;;;;;24.91;46.59;96900.03;6202788;22;19999;-79
2023/06/30 11:20:14;;;;;;;8.75;7.57;;;;;;;25.02;47.52;96893.09;6167353;22;20221;-82
2023/06/30 11:22:40;;;;;;;9.45;8.48;;;;;;;25.18;46.26;96898.38;6145817;22;20248;-80